HTAR

Arusha Airport

Arusha, Tanzania
METAR HTAR 251700Z 10010KT 9999 FEW024 21/15 Q1018 NOSIG
Observed Flight Rules
Sep-25 @ 17:00 UTC (2 hours ago) Visual Flight Rules
Wind Visibility Clouds
100° at 10 knots 10,000+ meters
  • Few at 2,400' AGL
Temperatures Readings
Current 21°C / 70°F
Dewpoint 15°C / 59°F
Humidity 69%
Altimeter 30.06" Hg
Pressure 1018 hPa
Elevation 1387
METAR HTAR 251700Z 10010KT 9999 FEW024 21/15 Q1018 NOSIG
Observed Flight Rules
Sep-25 @ 17:00 UTC
(2 hours ago)
VFR
Wind Visibility
100° at 10 knots 10,000+ meters
Clouds
  • Few at 2,400' AGL
Temperature Dewpoint
21°C / 70°F 15°C / 59°F
Humidity Altimeter Pressure
69% 30.06" Hg 1018 hPa